createdAt,value
2022-09-03T05:51:40.082Z,100.00
2022-09-03T05:54:09.373Z,100.00
2022-09-03T05:56:41.282Z,100.00
2022-09-03T05:59:11.989Z,100.00
2022-09-03T06:01:45.788Z,100.00
2022-09-03T06:04:21.705Z,100.00
2022-09-03T06:06:50.417Z,100.00
2022-09-03T06:09:21.171Z,100.00
2022-09-03T06:11:52.674Z,100.00
2022-09-03T06:14:22.056Z,100.00
2022-09-03T06:16:52.774Z,100.00
2022-09-03T06:19:22.633Z,100.00
2022-09-03T06:21:50.846Z,100.00
2022-09-03T06:24:23.225Z,100.00
2022-09-03T06:26:54.963Z,100.00
2022-09-03T06:29:23.381Z,100.00
2022-09-03T06:31:52.550Z,100.00
2022-09-03T06:34:23.273Z,100.00
2022-09-03T06:36:54.537Z,100.00
2022-09-03T06:39:23.347Z,100.00
2022-09-03T06:41:52.195Z,100.00
2022-09-03T06:44:28.013Z,100.00
2022-09-03T06:46:56.319Z,100.00
2022-09-03T06:49:26.251Z,100.00
2022-09-03T06:51:54.618Z,100.00
2022-09-03T06:54:25.182Z,100.00
2022-09-03T06:56:53.499Z,100.00
2022-09-03T06:59:21.732Z,100.00
2022-09-03T07:01:50.788Z,100.00
2022-09-03T07:04:20.313Z,100.00
2022-09-03T07:06:50.454Z,100.00
2022-09-03T07:09:19.383Z,100.00
2022-09-03T07:11:49.183Z,100.00
2022-09-03T07:14:19.519Z,100.00
2022-09-03T07:16:49.243Z,100.00
2022-09-03T07:19:17.925Z,100.00
2022-09-03T07:21:50.014Z,100.00
2022-09-03T07:24:22.267Z,100.00
2022-09-03T07:26:50.969Z,100.00
2022-09-03T07:29:21.644Z,100.00
2022-09-03T07:31:52.944Z,100.00
2022-09-03T07:34:25.652Z,100.00
2022-09-03T07:36:55.060Z,100.00
2022-09-03T07:39:24.892Z,100.00
2022-09-03T07:41:53.788Z,100.00
2022-09-03T07:44:23.107Z,100.00
2022-09-03T07:46:52.209Z,100.00
2022-09-03T07:49:22.551Z,100.00
2022-09-03T07:51:54.643Z,100.00
2022-09-03T07:54:27.310Z,100.00
2022-09-03T07:56:56.375Z,100.00
2022-09-03T07:59:26.081Z,100.00
2022-09-03T08:01:54.627Z,100.00
2022-09-03T08:04:23.044Z,100.00
2022-09-03T08:06:55.461Z,100.00
2022-09-03T08:09:25.292Z,100.00
2022-09-03T08:11:53.553Z,100.00
2022-09-03T08:14:22.048Z,100.00
2022-09-03T08:16:50.323Z,100.00
2022-09-03T08:19:19.947Z,100.00
2022-09-03T08:21:48.340Z,100.00
2022-09-03T08:24:20.937Z,100.00
2022-09-03T08:26:52.581Z,100.00
2022-09-03T08:29:23.496Z,100.00
2022-09-03T08:31:51.943Z,100.00
2022-09-03T08:34:21.533Z,100.00
2022-09-03T08:36:50.343Z,98.16
2022-09-03T08:39:18.897Z,96.66
2022-09-03T08:42:28.033Z,97.04
2022-09-03T08:44:59.642Z,97.12
2022-09-03T08:47:35.219Z,95.95
2022-09-03T08:50:12.642Z,96.76
2022-09-03T08:52:49.234Z,97.80
2022-09-03T08:55:24.975Z,98.29
2022-09-03T08:58:03.081Z,98.07
2022-09-03T09:00:48.403Z,98.04
2022-09-03T09:03:47.811Z,95.55
2022-09-03T09:06:27.482Z,96.01
2022-09-03T09:09:13.514Z,94.60
2022-09-03T09:12:04.842Z,96.12
2022-09-03T09:14:41.658Z,95.42
2022-09-03T09:17:32.786Z,94.18
2022-09-03T09:20:12.555Z,93.62
2022-09-03T09:22:47.363Z,92.52
2022-09-03T09:25:21.338Z,91.73
2022-09-03T09:27:56.089Z,93.04
2022-09-03T09:30:26.206Z,91.97
2022-09-03T09:32:56.253Z,93.25
2022-09-03T09:35:25.808Z,91.53
2022-09-03T09:37:57.545Z,92.39
2022-09-03T09:40:33.841Z,93.46
2022-09-03T09:43:08.003Z,89.74
2022-09-03T09:45:40.767Z,91.62
2022-09-03T09:48:19.976Z,91.60
2022-09-03T09:50:48.486Z,89.24
2022-09-03T09:53:21.888Z,91.14
2022-09-03T09:55:55.543Z,89.69
2022-09-03T09:58:28.349Z,89.61
2022-09-03T10:01:05.383Z,89.11
2022-09-03T10:03:36.094Z,89.96
2022-09-03T10:06:26.029Z,90.31
2022-09-03T10:09:07.272Z,90.05
2022-09-03T10:11:40.284Z,89.36
2022-09-03T10:14:18.266Z,90.65
2022-09-03T10:16:55.343Z,89.67
2022-09-03T10:19:34.606Z,89.21
2022-09-03T10:22:09.665Z,87.03
2022-09-03T10:24:54.029Z,86.89
2022-09-03T10:27:22.953Z,87.26
2022-09-03T10:29:51.487Z,89.01
2022-09-03T10:32:39.300Z,87.59
2022-09-03T10:35:21.393Z,85.57
2022-09-03T10:37:58.264Z,86.81
2022-09-03T10:40:36.189Z,87.18
2022-09-03T10:43:58.202Z,87.51
2022-09-03T10:46:29.787Z,85.24
2022-09-03T10:49:34.023Z,86.39
2022-09-03T10:52:11.281Z,85.77
2022-09-03T10:55:16.240Z,85.22
2022-09-03T10:57:56.161Z,84.59
2022-09-03T11:00:26.035Z,83.86
2022-09-03T11:03:28.651Z,82.44
2022-09-03T11:06:07.825Z,79.96
2022-09-03T11:08:43.134Z,81.06
2022-09-03T11:11:20.110Z,81.64
2022-09-03T11:13:54.988Z,83.07
2022-09-03T11:16:27.944Z,80.77
2022-09-03T11:19:04.657Z,81.67
2022-09-03T11:21:38.204Z,80.73
2022-09-03T11:24:15.599Z,78.35
2022-09-03T11:26:48.386Z,77.57
2022-09-03T11:29:27.957Z,78.71
2022-09-03T11:32:02.554Z,79.22
2022-09-03T11:34:33.989Z,80.26
2022-09-03T11:37:21.090Z,78.96
2022-09-03T11:40:04.688Z,78.74
2022-09-03T11:42:38.099Z,78.21
2022-09-03T11:45:37.480Z,75.91
2022-09-03T11:48:29.894Z,77.29
2022-09-03T11:50:58.145Z,76.47
2022-09-03T11:53:35.618Z,78.61
2022-09-03T11:56:19.766Z,74.06
2022-09-03T11:58:48.264Z,75.14
2022-09-03T12:01:19.226Z,75.76
2022-09-03T12:03:53.111Z,74.77
2022-09-03T12:06:48.770Z,70.91
2022-09-03T12:09:40.483Z,73.97
2022-09-03T12:12:33.379Z,72.75
2022-09-03T12:15:15.711Z,73.78
2022-09-03T12:18:14.005Z,73.39
2022-09-03T12:20:43.030Z,74.19
2022-09-03T12:23:14.604Z,73.43
2022-09-03T12:25:47.627Z,71.54
2022-09-03T12:28:23.551Z,73.77
2022-09-03T12:30:53.739Z,75.96
2022-09-03T12:33:24.483Z,73.83
2022-09-03T12:35:59.993Z,72.22
2022-09-03T12:38:40.538Z,69.39
2022-09-03T12:41:31.441Z,68.17
2022-09-03T12:44:04.862Z,71.12
2022-09-03T12:46:34.984Z,72.36
2022-09-03T12:52:06.129Z,71.61
2022-09-03T12:54:38.661Z,68.70
2022-09-03T12:57:10.039Z,64.94
2022-09-03T12:59:40.718Z,64.43
2022-09-03T13:02:20.319Z,68.60
2022-09-03T13:04:49.682Z,67.38
2022-09-03T13:07:28.385Z,69.50
2022-09-03T13:10:06.923Z,69.85
2022-09-03T13:12:52.976Z,69.76
2022-09-03T13:15:25.337Z,67.88
2022-09-03T13:18:25.503Z,67.43
2022-09-03T13:21:12.232Z,68.75
2022-09-03T13:23:59.798Z,67.72
2022-09-03T13:26:41.452Z,67.72
2022-09-03T13:29:35.939Z,67.16
2022-09-03T13:32:21.552Z,67.64
2022-09-03T13:34:55.857Z,68.17
2022-09-03T13:37:33.122Z,65.97
2022-09-03T13:40:15.962Z,65.79
2022-09-03T13:42:53.357Z,65.26
2022-09-03T13:45:32.880Z,62.44
2022-09-03T13:48:27.930Z,62.19
2022-09-03T13:51:08.537Z,61.38
2022-09-03T13:53:59.307Z,63.39
2022-09-03T13:56:45.668Z,64.75
2022-09-03T13:59:23.566Z,64.40
2022-09-03T14:02:21.636Z,61.41
2022-09-03T14:05:05.061Z,65.56
2022-09-03T14:07:52.453Z,62.88
2022-09-03T14:10:39.423Z,61.07
2022-09-03T14:13:22.612Z,63.53
2022-09-03T14:15:59.075Z,60.91
2022-09-03T14:18:48.181Z,63.67
2022-09-03T14:21:21.977Z,64.17
2022-09-03T14:23:56.132Z,62.78
2022-09-03T14:26:38.960Z,62.11
2022-09-03T14:29:17.201Z,64.31
2022-09-03T14:32:24.423Z,64.76
2022-09-03T14:35:18.208Z,61.03
2022-09-03T14:38:17.164Z,60.97
2022-09-03T14:40:47.980Z,60.98
2022-09-03T14:43:38.300Z,63.07
2022-09-03T14:46:26.265Z,63.32
2022-09-03T14:49:20.979Z,61.69
2022-09-03T14:52:12.113Z,62.41
2022-09-03T14:55:24.628Z,61.50
2022-09-03T14:58:18.064Z,63.89
2022-09-03T15:00:58.776Z,64.41
2022-09-03T15:03:57.356Z,63.01
2022-09-03T15:06:42.202Z,63.13
2022-09-03T15:09:30.157Z,62.15
2022-09-03T15:12:04.279Z,62.24
2022-09-03T15:14:47.874Z,61.59
2022-09-03T15:17:45.134Z,62.01
2022-09-03T15:20:27.566Z,61.56
2022-09-03T15:23:50.104Z,61.41
2022-09-03T15:26:55.491Z,61.10
2022-09-03T15:29:51.452Z,61.23
2022-09-03T15:32:40.592Z,62.23
2022-09-03T15:35:12.115Z,61.46
2022-09-03T15:37:47.948Z,62.40
2022-09-03T15:40:29.165Z,62.52
2022-09-03T15:43:08.374Z,62.06
2022-09-03T15:45:41.644Z,61.82
2022-09-03T15:48:23.514Z,63.35
2022-09-03T15:50:58.716Z,62.82
2022-09-03T15:53:36.177Z,63.12
2022-09-03T15:56:16.798Z,64.22
2022-09-03T15:58:53.875Z,63.69
2022-09-03T16:01:33.619Z,62.87
2022-09-03T16:04:21.339Z,63.35
2022-09-03T16:07:00.174Z,64.21
2022-09-03T16:10:20.290Z,64.31
2022-09-03T16:12:51.126Z,64.74
2022-09-03T16:15:24.765Z,64.98
2022-09-03T16:18:02.602Z,64.98
2022-09-03T16:20:40.443Z,66.16
2022-09-03T16:23:22.324Z,65.75
2022-09-03T16:25:57.359Z,66.04
2022-09-03T16:28:31.045Z,66.83
2022-09-03T16:31:17.102Z,67.91
2022-09-03T16:33:57.561Z,68.13
2022-09-03T16:36:39.128Z,68.81
2022-09-03T16:39:22.892Z,69.24
2022-09-03T16:42:05.207Z,70.20
2022-09-03T16:44:50.733Z,70.08
2022-09-03T16:47:34.116Z,71.86
2022-09-03T16:50:19.354Z,72.73
2022-09-03T16:53:03.207Z,73.69
2022-09-03T16:55:51.859Z,75.38
2022-09-03T16:58:27.869Z,75.86
2022-09-03T17:01:15.892Z,77.10
2022-09-03T17:04:14.262Z,78.53
2022-09-03T17:06:57.501Z,78.91
2022-09-03T17:09:46.770Z,79.47
2022-09-03T17:12:27.439Z,81.10
2022-09-03T17:15:17.614Z,82.08
2022-09-03T17:18:17.768Z,83.42
2022-09-03T17:21:06.573Z,84.01
2022-09-03T17:24:05.562Z,83.74
2022-09-03T17:26:45.697Z,84.08
2022-09-03T17:29:41.677Z,85.73
2022-09-03T17:32:29.122Z,86.40
2022-09-03T17:35:11.529Z,85.23
2022-09-03T17:37:59.039Z,86.02
2022-09-03T17:40:41.784Z,86.22
2022-09-03T17:43:27.993Z,86.58
2022-09-03T17:46:13.420Z,86.92
2022-09-03T17:48:52.427Z,88.41
2022-09-03T17:51:42.856Z,88.48
2022-09-03T17:54:22.965Z,88.77
2022-09-03T17:57:01.686Z,88.77
2022-09-03T17:59:44.249Z,88.91
2022-09-03T18:02:31.701Z,89.29
2022-09-03T18:05:08.035Z,89.63
2022-09-03T18:07:48.286Z,90.24
2022-09-03T18:10:31.837Z,90.63
2022-09-03T18:13:12.515Z,91.50
2022-09-03T18:15:54.313Z,91.94
2022-09-03T18:18:30.203Z,92.72
2022-09-03T18:21:25.555Z,92.78
2022-09-03T18:24:22.779Z,92.61
2022-09-03T18:27:17.589Z,92.87
2022-09-03T18:30:12.551Z,93.21
2022-09-03T18:32:58.380Z,93.91
2022-09-03T18:35:48.161Z,94.02
2022-09-03T18:38:36.762Z,94.51
2022-09-03T18:41:34.872Z,94.21
2022-09-03T18:44:34.174Z,94.89
2022-09-03T18:50:44.764Z,95.48
2022-09-03T18:53:36.680Z,96.16
2022-09-03T18:56:34.070Z,97.44
2022-09-03T18:59:39.676Z,98.09
2022-09-03T19:02:41.782Z,98.44
2022-09-03T19:05:37.482Z,98.36
2022-09-03T19:08:36.817Z,98.83
2022-09-03T19:11:27.735Z,98.45
2022-09-03T19:14:18.041Z,98.28
2022-09-03T19:17:23.568Z,98.66
2022-09-03T19:20:21.031Z,99.06
2022-09-03T19:23:06.928Z,99.57
2022-09-03T19:25:54.678Z,100.00
2022-09-03T19:28:42.805Z,100.00
2022-09-03T19:31:52.880Z,100.00
2022-09-03T19:35:26.105Z,100.00
2022-09-03T19:38:30.283Z,100.00
2022-09-03T19:41:27.622Z,100.00
2022-09-03T19:44:33.669Z,100.00
2022-09-03T19:47:22.049Z,100.00
2022-09-03T19:50:22.234Z,100.00
2022-09-03T19:53:13.823Z,100.00
2022-09-03T19:56:07.784Z,100.00
2022-09-03T19:58:58.921Z,100.00
2022-09-03T20:01:52.573Z,100.00
2022-09-03T20:04:45.756Z,100.00
2022-09-03T20:07:33.205Z,100.00
2022-09-03T20:10:23.600Z,100.00
2022-09-03T20:13:03.534Z,100.00
2022-09-03T20:15:44.764Z,100.00
2022-09-03T20:18:26.167Z,100.00
2022-09-03T20:21:06.060Z,100.00
2022-09-03T20:23:46.600Z,100.00
2022-09-03T20:26:29.138Z,100.00
2022-09-03T20:29:28.754Z,100.00
2022-09-03T20:32:09.365Z,100.00
2022-09-03T20:34:49.000Z,100.00
2022-09-03T20:37:29.360Z,100.00
2022-09-03T20:40:20.677Z,100.00
2022-09-03T20:43:28.381Z,100.00
2022-09-03T20:46:16.419Z,100.00
2022-09-03T20:48:59.646Z,100.00
2022-09-03T20:51:36.144Z,100.00
2022-09-03T20:54:15.066Z,100.00
2022-09-03T20:57:26.997Z,100.00
2022-09-03T21:00:08.160Z,100.00
2022-09-03T21:03:01.430Z,100.00
2022-09-03T21:05:35.611Z,100.00
2022-09-03T21:08:20.141Z,100.00
2022-09-03T21:10:54.898Z,100.00
2022-09-03T21:13:38.459Z,100.00
2022-09-03T21:16:24.991Z,100.00
2022-09-03T21:19:07.026Z,100.00
2022-09-03T21:21:48.081Z,100.00
2022-09-03T21:24:20.929Z,100.00
2022-09-03T21:26:54.021Z,100.00
2022-09-03T21:29:28.109Z,100.00
2022-09-03T21:32:04.956Z,100.00
2022-09-03T21:34:41.662Z,100.00
2022-09-03T21:37:13.833Z,100.00
2022-09-03T21:39:47.873Z,100.00
2022-09-03T21:42:25.314Z,100.00
2022-09-03T21:45:02.193Z,100.00
2022-09-03T21:47:35.108Z,100.00
2022-09-03T21:50:18.019Z,100.00
2022-09-03T21:52:53.957Z,100.00
2022-09-03T21:55:29.403Z,100.00
2022-09-03T21:58:13.849Z,100.00
2022-09-03T22:00:43.923Z,100.00
2022-09-03T22:03:13.388Z,100.00
2022-09-03T22:05:51.791Z,100.00
2022-09-03T22:08:29.163Z,100.00
2022-09-03T22:11:08.990Z,100.00
2022-09-03T22:13:48.491Z,100.00
2022-09-03T22:16:28.185Z,100.00
2022-09-03T22:18:56.671Z,100.00
2022-09-03T22:21:32.274Z,100.00
2022-09-03T22:24:22.207Z,100.00
2022-09-03T22:26:58.190Z,100.00
2022-09-03T22:29:40.110Z,100.00
2022-09-03T22:32:25.341Z,100.00
2022-09-03T22:35:11.878Z,100.00
2022-09-03T22:38:09.267Z,100.00
2022-09-03T22:40:46.217Z,100.00
2022-09-03T22:43:41.207Z,100.00
2022-09-03T22:46:14.001Z,100.00
2022-09-03T22:49:16.872Z,100.00
2022-09-03T22:51:57.982Z,100.00
2022-09-03T22:54:44.861Z,100.00
2022-09-03T22:57:15.704Z,100.00
2022-09-03T22:59:52.556Z,100.00
2022-09-03T23:02:24.835Z,100.00
2022-09-03T23:05:06.155Z,100.00
2022-09-03T23:07:49.489Z,100.00
2022-09-03T23:10:25.869Z,100.00
2022-09-03T23:13:07.190Z,100.00
2022-09-03T23:15:41.711Z,100.00
2022-09-03T23:18:17.680Z,100.00
2022-09-03T23:20:57.239Z,100.00
2022-09-03T23:23:32.012Z,100.00
2022-09-03T23:26:13.353Z,100.00
2022-09-03T23:28:48.587Z,100.00
2022-09-03T23:31:22.614Z,100.00
2022-09-03T23:33:53.891Z,100.00
2022-09-03T23:37:10.260Z,100.00
2022-09-03T23:40:13.737Z,100.00
2022-09-03T23:43:25.895Z,100.00
2022-09-03T23:46:05.374Z,100.00
2022-09-03T23:48:45.022Z,100.00
2022-09-03T23:51:23.540Z,100.00
2022-09-03T23:54:10.256Z,100.00
2022-09-03T23:56:57.826Z,100.00
2022-09-03T23:59:43.264Z,100.00
